Julián Ríos

Chief Scout - Instituto
25 Dec 2027
Saturday
Process

Personality

Adaptability (11) Ambition (8) Controversy (1) Loyalty (15) Pressure (15) Professionalism (16) Sportsmanship (13) Temperament (10)

Profile

Coaching Style Democratic
License National A
Determination 10
Man Management 6
Motivating 7
Discipline 7
Job Satisfaction
100%
Fatigue
0%
Role Chief Scout
Wage 23.8K p/w
Contract 14.03.2030

Performance

Behaviour Good
Training Effectiveness
38%
Player Development
60%
Injury Prevention
35%
Tactical Implementation
30%

Recent Events

Attended a recruitment meeting now
Recommended a transfer target now
Recommended a transfer target now
Recommended a transfer target now
Recommended a transfer target 7d ago
Recommended a transfer target 7d ago
Recommended a transfer target 7d ago
Recommended a transfer target 7d ago

Currently Monitoring

330
Player Club Status Ability Confidence Watched Last Observed Latest Vote
Esquerdinha Oldham Athletic Active 112 / 127 40% 1 01.12.2027 -
Geanfranco Rodríguez Defensor Sporting Active 94 / 96 40% 1 01.12.2027 -
Yury Oyarzo Racing Active 94 / 103 40% 1 01.12.2027 -
Sebastián Ramírez America de Cali Active 103 / 117 40% 1 30.11.2027 -
Juan Pablo Hernández Plaza Colonia Active 94 / 108 40% 1 30.11.2027 -
Thiago Silvero Sevilla Active 125 / 131 40% 1 30.11.2027 -
Thiago Fusco Colón Active 90 / 101 72% 1 12.07.2027 Approve
Anthony da Costa Artigas Active 78 / 86 40% 2 22.06.2027 -
Mateo Alcoba Albion Active 78 / 95 40% 1 22.06.2027 -
Amar Memić Juventude Negotiating 127 / 128 62% 1 01.06.2027 Approve
Caio Vidal FC Copenhagen Negotiating 128 / 129 63% 1 01.06.2027 Approve
Juan González Atlético Tucumán Active 98 / 106 40% 1 01.06.2027 -
Pedro Ramallo Albion Active 76 / 87 40% 1 01.06.2027 -
Ignacio Coscio Zaragoza Active 84 / 97 40% 1 01.06.2027 -
Tim Iroegbunam Hull City Active 143 / 148 40% 4 30.05.2027 -
Othmane Maamma Watford Active 134 / 119 40% 3 30.05.2027 -
Adama Goïta Remo Stars Active 97 / 107 40% 2 30.05.2027 -
George Brown Sheffield Wednesday Active 106 / 116 40% 2 29.05.2027 -
Luis Yanes Real Cartagena Active 91 / 104 40% 1 29.05.2027 -
Sidiki Chérif Coventry City Active 129 / 124 40% 2 28.05.2027 -
Cristian Peñate Barranquilla Active 91 / 98 40% 2 28.05.2027 -
Wilmar Cordoba Valledupar Active 86 / 96 40% 3 28.05.2027 -
Oumar Camara Vitoria Guimaraes Active 122 / 113 40% 2 27.05.2027 -
Carlos da Rosa Cerro Active 87 / 93 40% 1 27.05.2027 -
Ichem Ferrah Pisa Active 104 / 112 40% 1 27.05.2027 -
José Luis Torres Boston River Active 79 / 87 40% 1 27.05.2027 -
Luciano Di Candia Racing Active 83 / 84 40% 1 27.05.2027 -
Babis Kostoulas Aston Villa Active 136 / 141 40% 3 24.05.2027 -
Tomáš Rigo Stoke City Active 132 / 118 40% 2 24.05.2027 -
Ollie Tanner Cardiff City Active 120 / 116 40% 1 24.05.2027 -
Miloš Jovičić Zabbar St. Patrick Active 87 / 107 40% 2 23.05.2027 -
Gustavo Ferreira Benfica Active 76 / 83 40% 2 23.05.2027 -
Gonzalo Fulham Active 140 / 135 40% 2 22.05.2027 -
Emile Smith Rowe Fulham Active 147 / 163 40% 2 22.05.2027 -
Loum Tchaouna Coventry City Active 131 / 142 40% 6 20.05.2027 -
Tom Fellows Southampton Active 127 / 117 40% 2 20.05.2027 -
Markus Jensen Nacional Active 114 / 102 40% 1 20.05.2027 -
Kevin Fulham Active 160 / 163 40% 6 18.05.2027 -
Alex Scott Bournemouth Active 158 / 138 40% 1 18.05.2027 -
Ali Ahmed Norwich City Active 117 / 124 40% 1 18.05.2027 -
Koki Saito Queens Park Rangers Active 119 / 132 40% 2 16.05.2027 -
Agustín Hausch Caracas Active 121 / 129 40% 1 16.05.2027 -
Enzo Barrenechea Burnley Active 156 / 134 40% 3 15.05.2027 -
Ethan Galbraith Swansea City Active 128 / 127 40% 1 14.05.2027 -
Cian Ashford Cardiff City Active 112 / 109 40% 8 13.05.2027 -
Kasey McAteer Ipswich Town Active 141 / 118 40% 2 13.05.2027 -
Brenden Aaronson Leeds United Active 130 / 138 40% 1 13.05.2027 -
Brooke Norton-Cuffy Hull City Active 146 / 144 40% 1 10.05.2027 -
Mathias Jørgensen Blackburn Rovers Active 119 / 119 40% 2 09.05.2027 -
Melker Widell Swansea City Active 113 / 111 40% 1 09.05.2027 -
Camilo Durán Bloemfontein Celtic Active 126 / 112 40% 4 08.05.2027 -
Malick Fofana Sunderland Active 138 / 144 40% 3 08.05.2027 -
Zeidane Inoussa Swansea City Active 132 / 121 40% 2 08.05.2027 -
Chemsdine Talbi Sunderland Active 147 / 135 40% 2 06.05.2027 -
Malik Mothersille Stockport County Active 117 / 104 40% 1 06.05.2027 -
Dávid Strelec Middlesbrough Active 131 / 149 40% 1 06.05.2027 -
Romano Schmid Frosinone Active 149 / 157 40% 1 05.05.2027 -
Rumarn Burrell Queens Park Rangers Active 127 / 131 40% 3 04.05.2027 -
Yurdy Ramos Real Santander Active 79 / 96 40% 1 04.05.2027 -
Juan Soteldo Atletico Venezuela Active 80 / 82 40% 1 04.05.2027 -
Mathis Jangeal Famalicao Active 89 / 114 40% 1 04.05.2027 -
Max Johnston Derby County Active 128 / 136 40% 2 02.05.2027 -
Santiago Pierotti Lecce Active 130 / 130 40% 1 02.05.2027 -
Jovon Makama Norwich City Active 125 / 111 40% 1 30.04.2027 -
Helinho Toluca Active 140 / 119 40% 6 28.04.2027 -
Jeon Jin-Woo Sheffield Wednesday Active 139 / 130 40% 3 28.04.2027 -
Tyler Goodrham Oxford United Active 117 / 130 40% 1 27.04.2027 -
Louie Barry Sheffield Wednesday Active 120 / 131 40% 4 26.04.2027 -
Ryan Sessegnon Fulham Active 154 / 138 40% 1 26.04.2027 -
Jack Rudoni Coventry City Active 139 / 139 40% 2 25.04.2027 -
Isma Ruiz Córdoba Active 135 / 124 40% 2 25.04.2027 -
Darlvin Yeboah Bechem United Active 78 / 101 40% 2 24.04.2027 -
Julio Enciso Ipswich Town Active 144 / 132 40% 3 24.04.2027 -
Ignacio Aliseda Cerro Porteno Active 130 / 123 40% 1 24.04.2027 -
Kirill Cheburakov Rostov Active 72 / 85 40% 1 24.04.2027 -
Luca Bastilla Levante Active 85 / 102 40% 1 24.04.2027 -
Sindre Walle Egeli Nottingham Forest Active 129 / 120 40% 1 23.04.2027 -
Nicolás Azambuja Danubio Active 111 / 132 40% 1 23.04.2027 -
Lamine Cissé Peterborough United Active 123 / 137 40% 2 17.04.2027 -
Tyreece Campbell Charlton Athletic Active 111 / 121 40% 1 17.04.2027 -
Tariq Lamptey Queens Park Rangers Active 131 / 135 40% 3 16.04.2027 -
Alex Robertson Cardiff City Active 127 / 132 40% 2 15.04.2027 -
Finn Azaz Southampton Active 139 / 120 40% 4 14.04.2027 -
Daniel Kyerewaa Reading Active 117 / 98 40% 2 14.04.2027 -
Max Bird Birmingham Active 123 / 118 40% 1 14.04.2027 -
Ricardo Solbes Getafe Active 101 / 110 40% 4 13.04.2027 -
Gregorio Blanco Cobresal Active 80 / 91 40% 1 13.04.2027 -
Tobías Modlin Dorados Active 88 / 70 40% 1 13.04.2027 -
Dramane Kamagaté USM Alger Active 110 / 124 40% 2 12.04.2027 -
Mohamed El Amine Ramdaoui USM Alger Active 108 / 96 40% 1 11.04.2027 -
Ronald Swansea City Active 136 / 116 40% 1 10.04.2027 -
Joel Abraham Boston River Active 85 / 85 40% 2 09.04.2027 -
Jack McGlynn Stoke City Active 129 / 125 40% 1 06.04.2027 -
Luca Orellano Atlético Madrid Active 125 / 135 40% 1 05.04.2027 -
Carlos Vicente Udinese Active 135 / 148 40% 3 04.04.2027 -
Tyrese Campbell Sheffield United Active 116 / 117 40% 2 04.04.2027 -
Shea Charles Southampton Active 145 / 123 40% 2 03.04.2027 -
Konan N'Dri Lecce Active 125 / 140 40% 1 02.04.2027 -
Ignacio Perruzzi Celta Active 113 / 140 40% 1 01.04.2027 -
Fraser Murray Wigan Athletic Active 129 / 125 40% 2 30.03.2027 -
Wilson Isidor Sunderland Active 145 / 136 40% 1 28.03.2027 -
Yannik Wagner Heidenheim Active 110 / 118 40% 1 27.03.2027 -
Milan van Ewijk Coventry City Active 143 / 118 40% 2 26.03.2027 -
Tshepang Moremi Orlando Pirates Active 126 / 112 40% 3 25.03.2027 -
Romaine Mundle Sunderland Active 135 / 127 40% 1 21.03.2027 -
Oliver Skipp Leicester City Active 123 / 140 40% 1 20.03.2027 -
Isaac Price West Bromwich Albion Active 135 / 131 40% 1 19.03.2027 -
Axel Afonso Atlético Tucumán Active 83 / 105 40% 1 19.03.2027 -
Iván Spoljaric Cesar Vallejo Active 84 / 93 40% 1 19.03.2027 -
David Mojica Union Magdalena Active 86 / 85 40% 1 19.03.2027 -
Relebohile Mofokeng Orlando Pirates Active 115 / 131 40% 4 17.03.2027 -
Nicolò Zaniolo Udinese Active 139 / 133 40% 1 17.03.2027 -
Facundo Núñez Liverpool Montevideo Active 90 / 103 40% 1 15.03.2027 -
Lautaro Fernández Progreso Active 73 / 90 40% 1 15.03.2027 -
Kevin Lezcano Guarani Active 79 / 88 40% 1 15.03.2027 -
Sunusi Audu New Edubiase United Active 72 / 81 40% 2 13.03.2027 -
Damián Puebla Orenburg Active 132 / 130 40% 2 11.03.2027 -
Ramón Terrats Getafe Active 144 / 156 40% 1 10.03.2027 -
Petar Stanić Ludogorets Active 139 / 129 40% 2 09.03.2027 -
Simón Meza Cerrito Active 85 / 79 40% 1 09.03.2027 -
Andre Brooks Sheffield United Active 133 / 138 40% 1 05.03.2027 -
Zeki Amdouni Burnley Active 133 / 143 40% 1 02.03.2027 -
Scott Twine Bristol City Active 112 / 137 40% 1 27.02.2027 -
Jason Knight Bristol City Active 134 / 116 40% 1 27.02.2027 -
Santiago Videla Iquique Active 86 / 80 40% 1 26.02.2027 -
Yolvis Humanes Union Magdalena Active 79 / 87 40% 1 26.02.2027 -
Santiago López Toluca Active 78 / 104 40% 1 26.02.2027 -
Charles De Ketelaere Atalanta Active 164 / 156 40% 1 21.02.2027 -
Aidomo Emakhu Oxford United Active 118 / 125 40% 1 20.02.2027 -
Juan Ignacio Blanco Defensor Sporting Active 87 / 97 40% 1 18.02.2027 -
Felipe Ortiz Deportivo Maldonado Active 82 / 97 40% 1 18.02.2027 -
Mihailo Ivanović Millwall Active 133 / 121 40% 1 15.02.2027 -
Ognjen Bondžulić Mladost Lucani Active 93 / 101 40% 1 15.02.2027 -
Alagie Wally Veres Active 77 / 77 40% 1 14.02.2027 -
Amine Adli Bournemouth Active 147 / 136 40% 1 10.02.2027 -
Joel Orlando Real Sociedad Active 118 / 126 40% 1 08.02.2027 -
Iovan Roganovich Sportivo Trinidense Active 77 / 78 40% 1 08.02.2027 -
Jeremías Merlo AC Milan Active 120 / 128 40% 1 07.02.2027 -
Paulo da Costa Penarol Active 76 / 103 40% 1 06.02.2027 -
Sebastián Mella Huachipato Active 90 / 98 40% 1 05.02.2027 -
Jhusstyn Rentería Atletico Nacional Active 85 / 92 40% 1 05.02.2027 -
Mathías Aguiar Montevideo City Torque Active 84 / 80 40% 1 05.02.2027 -
Juan Velázquez Atlético Madrid Active 133 / 124 40% 1 02.02.2027 -
Odilon Kossounou Atalanta Active 148 / 136 40% 1 02.02.2027 -
Tyler Adams Bournemouth Active 163 / 156 40% 1 02.02.2027 -
Ben Chrisene Sheffield Wednesday Active 126 / 130 40% 1 02.02.2027 -
Thulani Billiat Utrecht Negotiating 136 / 136 61% 1 01.12.2026 Approve
Luca Langoni New England Revolution Active 121 / 144 40% 2 30.11.2026 -
Thiago Nuss OFI Active 114 / 121 40% 1 30.11.2026 -
Mariano Gómez Ferencvaros Active 133 / 136 40% 2 29.11.2026 -
Andrés Herrera Columbus Crew Active 117 / 110 40% 3 28.11.2026 -
Francisco Álvarez Argentinos Juniors Active 130 / 128 40% 2 28.11.2026 -
Nicolás Domínguez Nottingham Forest Active 151 / 129 40% 2 28.11.2026 -
Juan Larios Piast Active 126 / 109 40% 1 27.11.2026 -
Lautaro Pertusatti River Plate Active 100 / 109 40% 1 27.11.2026 -
Lucas de los Santos Defensor Sporting Active 114 / 109 40% 1 27.11.2026 -
Facundo Cambeses Racing Club Active 136 / 126 40% 2 26.11.2026 -
David Ayala Inter Miami CF Active 132 / 107 40% 2 26.11.2026 -
Ángel Maciel Tacuarembo Active 106 / 100 40% 1 26.11.2026 -
Alejo Sánchez Roa Granada Active 93 / 84 40% 1 26.11.2026 -
Leandro Lacunza Hibernians Active 94 / 79 40% 3 25.11.2026 -
Josh Tymon Swansea City Active 117 / 111 40% 1 25.11.2026 -
Rodrigo Chagas Juventud Active 121 / 116 40% 1 25.11.2026 -
Diego Romero Universitario Active 123 / 130 40% 4 24.11.2026 -
Facundo Mura Inter Miami CF Active 117 / 142 40% 3 24.11.2026 -
Tomás Ahumada Audax Italiano Active 109 / 110 40% 1 24.11.2026 -
Viktor Johansson Stoke City Active 134 / 143 40% 1 24.11.2026 -
Jacob Greaves Ipswich Town Active 131 / 142 40% 2 21.11.2026 -
Nahuel Furtado Wanderers Active 127 / 117 40% 2 20.11.2026 -
Franco Carretero Deportivo Lara Active 102 / 103 40% 2 19.11.2026 -
Mateo Rinaldi Danubio Active 114 / 103 40% 5 19.11.2026 -
Juan Díaz Universidad Catolica Active 119 / 109 40% 2 19.11.2026 -
Killian Cahill Leyton Orient Active 114 / 118 40% 1 19.11.2026 -
Tomás Escalante Plaza Colonia Active 119 / 130 40% 7 18.11.2026 -
Sebastián Boselli Getafe Active 111 / 112 40% 3 18.11.2026 -
Sebastián Flores Rayo Vallecano Active 108 / 123 40% 2 18.11.2026 -
Agustín Maidana San Marcos de Arica Active 105 / 108 40% 4 16.11.2026 -
Claudio Bravo Argentinos Juniors Active 114 / 114 40% 1 16.11.2026 -
Agustín Pinheiro Progreso Active 110 / 107 40% 1 16.11.2026 -
Gonzalo Luján Inter Miami CF Active 128 / 113 40% 3 15.11.2026 -
Miguel Brizuela O'Higgins Active 109 / 117 40% 3 15.11.2026 -
Elías Báez Atlanta United FC Active 117 / 124 40% 3 14.11.2026 -
Lucas Souto Defensa y Justicia Active 125 / 118 40% 2 14.11.2026 -
Alan Robledo O'Higgins Active 112 / 111 40% 2 14.11.2026 -
Rodrigo Cáseres Union La Calera Active 107 / 115 40% 5 13.11.2026 -
Andrés Ayala Hellas Verona Active 97 / 121 40% 1 13.11.2026 -
Martín Ginzo Deportivo Maldonado Active 99 / 99 40% 2 12.11.2026 -
Mathías Olivera Cesena Active 152 / 155 40% 1 12.11.2026 -
Rafael Sangiovani Metropolitanos Active 99 / 105 40% 5 11.11.2026 -
Emanuel Cecchini Juventud Active 114 / 118 40% 1 11.11.2026 -
Joaquín Stizza Cagliari Active 111 / 94 40% 1 10.11.2026 -
Tobías Bovone Deportivo Pereira Active 107 / 111 40% 3 08.11.2026 -
Mauro Villar Cerro Active 91 / 90 40% 2 08.11.2026 -
Gonzalo Gamarra Floriana Active 104 / 115 40% 1 08.11.2026 -
Nicolás Kozlovsky Oriental Active 102 / 100 40% 2 07.11.2026 -
Juan Pablo Salomoni Union La Calera Active 113 / 116 40% 3 06.11.2026 -
Rodrigo González Aldosivi Active 117 / 123 40% 2 06.11.2026 -
Joaquín García Vélez Active 132 / 136 40% 1 06.11.2026 -
Nicolás Garayalde Liverpool Montevideo Active 117 / 110 40% 3 05.11.2026 -
Rodrigo Insúa Cagliari Active 130 / 130 40% 1 05.11.2026 -
Erik de los Santos Racing Active 108 / 114 40% 2 04.11.2026 -
Federico Navarro Rosario Central Active 120 / 119 40% 1 04.11.2026 -
Franco Ibarra Rosario Central Active 135 / 128 40% 1 03.11.2026 -
Nicolás Ortiz Leganés Active 98 / 119 40% 1 03.11.2026 -
Lautaro Lusnig Deportivo Tachira Active 107 / 109 40% 4 02.11.2026 -
Juan Fernando Alfaro Olimpia Active 120 / 107 40% 1 01.11.2026 -
Nicolás Fernández Penarol Active 117 / 126 40% 3 31.10.2026 -
Gonzalo Silva Progreso Active 100 / 100 40% 1 31.10.2026 -
Ezequiel Neira Carabobo Active 109 / 122 40% 1 31.10.2026 -
Rodrigo Herrera Newell's Old Boys Active 131 / 129 40% 1 30.10.2026 -
Esteban Glellel Quilmes Active 120 / 126 40% 1 29.10.2026 -
Igor Nikić Lech Active 122 / 108 40% 1 29.10.2026 -
Ignacio Vázquez Platense Active 132 / 127 40% 1 29.10.2026 -
Tomás Moschion Albion Active 108 / 105 40% 1 28.10.2026 -
Mateo Silvetti Inter Miami CF Active 125 / 144 40% 1 28.10.2026 -
Diego Romero Liverpool Montevideo Active 107 / 113 40% 1 25.10.2026 -
Jean Pierre Rosso Liverpool Montevideo Active 118 / 119 40% 1 25.10.2026 -
Enzo Cardozo Virtus Entella Active 96 / 121 40% 1 25.10.2026 -
Fernando Martínez Central Córdoba SdE Active 127 / 116 40% 1 24.10.2026 -
Tomás Jacob Atlanta United FC Active 116 / 134 40% 1 23.10.2026 -
Blas Rolón Siracusa Active 79 / 74 40% 1 22.10.2026 -
Nathan Trott Cardiff City Active 126 / 119 40% 1 22.10.2026 -
Pedro González Cerro Largo Active 110 / 113 40% 1 22.10.2026 -
Angel Zamudio CFR Cluj Active 129 / 125 40% 3 20.10.2026 -
Emiliano Álvarez Progreso Active 124 / 120 40% 3 20.10.2026 -
Pablo Ruiz Real Salt Lake Active 127 / 105 40% 2 20.10.2026 -
Enzo Vázquez Central Norte Active 109 / 106 40% 1 20.10.2026 -
Jonathan Lima Montevideo City Torque Active 100 / 87 40% 1 20.10.2026 -
Alejo Macelli Cerro Active 109 / 110 40% 3 18.10.2026 -
Lucas Carrizo Newell's Old Boys Active 132 / 131 40% 1 18.10.2026 -
Facundo Velazco San Marcos de Arica Active 103 / 99 40% 3 17.10.2026 -
Marcos Senesi Tottenham Active 143 / 139 40% 2 17.10.2026 -
Marc Pubill Atlético Madrid Active 134 / 157 40% 1 17.10.2026 -
César Ibáñez Huracán Active 119 / 116 40% 1 16.10.2026 -
Emanuel Coronel Rosario Central Active 127 / 132 40% 1 16.10.2026 -
Francisco Bonfiglio Boston River Active 105 / 107 40% 2 15.10.2026 -
Franco Déboli Audax Italiano Active 102 / 92 40% 1 15.10.2026 -
Segundo Pachamé Plaza Colonia Active 103 / 95 40% 1 13.10.2026 -
Agustín Buffa Wanderers Active 106 / 101 40% 2 12.10.2026 -
Rodrigo Morínigo Libertad Active 116 / 109 40% 2 12.10.2026 -
David Morosini Juventud Active 104 / 111 40% 2 12.10.2026 -
Nicolás González Plaza Colonia Active 111 / 103 40% 1 11.10.2026 -
Alejo Cruz Juventud Active 121 / 121 40% 1 11.10.2026 -
Cristian Barros Cerro Active 98 / 94 40% 1 10.10.2026 -
Fernando Mimbacas Juventud Active 114 / 120 40% 1 10.10.2026 -
Matías Núñez Carabobo Active 100 / 105 40% 2 08.10.2026 -
Martín Ortega Newell's Old Boys Active 114 / 119 40% 1 08.10.2026 -
Francisco Salerno Defensores Unidos Active 105 / 109 40% 1 07.10.2026 -
Lucas Villagra Cultural Leonesa Active 83 / 109 40% 1 06.10.2026 -
Nicolás Forastiero Deportivo Maldonado Active 96 / 92 40% 1 05.10.2026 -
Nehemías Almaraz Oviedo Active 98 / 80 40% 1 05.10.2026 -
Franco Pardo Santos Laguna Active 129 / 140 40% 4 04.10.2026 -
Luís Esteves Atlas Active 123 / 136 40% 1 04.10.2026 -
Nicolás Chaves Guadalajara Active 124 / 117 40% 1 02.10.2026 -
Adonis Frías Atlas Active 132 / 114 40% 3 01.10.2026 -
Santiago Simón Toluca Active 119 / 113 40% 1 01.10.2026 -
Franco Romero Toluca Active 118 / 118 40% 4 28.09.2026 -
Jesús Angulo Tigres Active 141 / 150 40% 1 28.09.2026 -
Brian Calderara Morelia Active 119 / 114 40% 4 27.09.2026 -
Lucas Agazzi Defensor Sporting Active 116 / 122 40% 2 26.09.2026 -
Agustín Aguirre Boston River Active 104 / 101 40% 1 26.09.2026 -
Emiliano González Almagro Active 120 / 112 40% 1 25.09.2026 -
Andres Duque Universitario Popayan Active 99 / 108 40% 1 25.09.2026 -
Sergio Barreto Pachuca Active 130 / 124 40% 3 23.09.2026 -
Adrián Parra Deportes Tolima Active 121 / 109 40% 1 23.09.2026 -
Tomás Chancalay Minnesota United FC Active 120 / 118 40% 1 23.09.2026 -
Diego Martinez La Equidad Active 130 / 122 40% 2 21.09.2026 -
Jean Carlos Pestaña Junior Active 120 / 117 40% 2 21.09.2026 -
Bruno Amione Santos Laguna Active 119 / 130 40% 4 20.09.2026 -
Jonathan De Irastorza Levante Active 111 / 134 40% 2 20.09.2026 -
Joaquín Varela Independiente Medellin Active 116 / 117 40% 1 20.09.2026 -
Fredy Martínez Boston River Active 99 / 105 40% 1 18.09.2026 -
Nicolás Fonseca Leon Active 114 / 121 40% 1 18.09.2026 -
Gabriel Chocobar Oriental Active 98 / 94 40% 3 17.09.2026 -
Nicolás Romero Minnesota United FC Active 131 / 120 40% 1 17.09.2026 -
Óscar Díaz Miramar Misiones Active 100 / 111 40% 1 17.09.2026 -
Diego Chávez Deportivo Pasto Active 119 / 109 40% 4 16.09.2026 -
Diego Enríquez Sporting Cristal Active 123 / 131 40% 2 16.09.2026 -
Geindry Cuervo Envigado Active 111 / 110 40% 1 16.09.2026 -
Fernando Tapia Club America Active 134 / 141 40% 1 16.09.2026 -
Ezequiel Bullaude Santos Laguna Active 126 / 130 40% 1 15.09.2026 -
Joaquín Pereyra Minnesota United FC Active 134 / 118 40% 1 15.09.2026 -
Luciano Boggio Nacional Active 118 / 114 40% 1 15.09.2026 -
Lucas Bruera Carabobo Active 111 / 122 40% 2 13.09.2026 -
Franco Ortellado Sol de America Active 105 / 102 40% 1 13.09.2026 -
Zacarías López Iquique Active 101 / 104 40% 1 13.09.2026 -
Francisco Casanova Cerrito Active 97 / 108 40% 1 12.09.2026 -
Rafael Hornos Liverpool Montevideo Active 88 / 95 40% 1 12.09.2026 -
Diego Hernández Aguilas Doradas Active 119 / 128 40% 1 10.09.2026 -
Ángel González Libertad Active 108 / 112 40% 2 09.09.2026 -
Aldo Montes Tigres Active 98 / 92 40% 3 09.09.2026 -
David Arias Cortulua Active 119 / 127 40% 1 09.09.2026 -
Agustín Requena Progreso Active 98 / 95 40% 1 09.09.2026 -
Emiliano Ancheta Nacional Active 118 / 108 40% 1 07.09.2026 -
Jhohan Romaña Leon Active 128 / 117 40% 2 05.09.2026 -
Ronaldo Pájaro Deportivo Cali Active 124 / 116 40% 1 05.09.2026 -
Jermein Peña Junior Active 124 / 114 40% 1 04.09.2026 -
Andrés Samurio Tacuarembo Active 100 / 106 40% 1 04.09.2026 -
Williams Barlasina Fortaleza CEIF Active 119 / 119 40% 1 04.09.2026 -
Felipe Zenobio Tigre Active 133 / 115 40% 1 04.09.2026 -
Florián Monzón Atlas Active 119 / 133 40% 1 04.09.2026 -
Ismael Díaz Leon Active 123 / 137 40% 1 04.09.2026 -
Agustín Venezia Iquique Active 116 / 104 40% 1 04.09.2026 -
Junior Hernández Deportes Tolima Active 115 / 122 40% 1 01.09.2026 -
Eber Moreno Deportivo Pereira Active 110 / 104 40% 1 30.08.2026 -
Jáder Valencia Deportes Tolima Active 115 / 119 40% 1 30.08.2026 -
Mauro Valiente Chiapas Active 99 / 113 40% 1 30.08.2026 -
Willer Ditta Cruz Azul Active 144 / 136 40% 2 28.08.2026 -
Francisco Manenti Metropolitanos Active 100 / 94 40% 1 27.08.2026 -
Bruno Méndez Toluca Active 128 / 144 40% 1 27.08.2026 -
Tobías Reinhart Universidad de Chile Active 123 / 129 40% 2 26.08.2026 -
Maicol Ferreira Danubio Active 102 / 101 40% 1 24.08.2026 -
Enzo Vlaeminch Oriental Active 99 / 104 40% 1 24.08.2026 -
Maximiliano Zelaya Miramar Misiones Active 88 / 96 40% 2 23.08.2026 -
Gian Nardelli Deportivo La Coruña Active 112 / 113 40% 2 23.08.2026 -
Adriano Freitas Deportivo Maldonado Active 108 / 117 40% 2 21.08.2026 -
Juan Francisco Rago Atlanta Active 123 / 123 42% 1 / 1m 19.08.2026 -
Jorge Hernández Tijuana Active 122 / 113 40% 1 19.08.2026 -
Santiago Laquidain Liverpool Montevideo Active 101 / 94 40% 2 16.08.2026 -
Matías Dufour Sportivo Trinidense Active 104 / 113 40% 1 16.08.2026 -
Reynaldo Fontalvo Real Cartagena Active 90 / 96 40% 1 16.08.2026 -
Milton Valenzuela Atlas Active 111 / 115 40% 1 16.08.2026 -
Lautaro Centurión Fenix Active 88 / 104 40% 1 13.08.2026 -
César Araújo Tigres Active 124 / 122 40% 1 12.08.2026 -
Lucas Verza Olimpia Active 103 / 103 40% 1 11.08.2026 -
Pablo Siles Montevideo City Torque Active 111 / 116 40% 1 11.08.2026 -
Santiago Jiménez Deportivo Pasto Active 117 / 127 40% 1 11.08.2026 -
Renato Solís Sporting Cristal Active 119 / 115 40% 1 04.08.2026 -
Cristian Trujillo Deportes Tolima Active 108 / 125 40% 1 04.08.2026 -
Omar Carabalí O'Higgins Active 102 / 106 40% 1 02.08.2026 -